Time;durP1;ratioP1;P1;durP2;ratioP2;P2;SDS_P1;SDS_P2;PMS_P1;PMS_P2;Temp;Humidity;BMP_temperature;BMP_pressure;BME280_temperature;BME280_humidity;BME280_pressure;Samples;Min_cycle;Max_cycle;Signal;HPM_P1;HPM_P2
2021/07/15 00:01:09;;;;;;;12.93;2.60;;;;;;;-145.18;100.00;60484.78;5062585;28;20040;-70
2021/07/15 00:03:35;;;;;;;16.63;2.33;;;;;;;-145.18;100.00;60484.78;5057272;28;20492;-70
2021/07/15 00:06:00;;;;;;;10.73;2.67;;;;;;;-145.18;100.00;60484.78;5079322;28;20327;-70
2021/07/15 00:08:27;;;;;;;8.43;2.50;;;;;;;-145.18;100.00;60484.78;5080166;28;20032;-70
2021/07/15 00:10:57;;;;;;;10.47;2.37;;;;;;;-145.18;100.00;60484.78;5081353;28;20046;-70
2021/07/15 00:30:14;;;;;;;6.10;2.13;;;;;;;-145.18;100.00;60484.78;5093171;28;20128;-69
2021/07/15 00:32:39;;;;;;;19.43;2.60;;;;;;;-145.18;100.00;60484.78;5080899;28;20024;-69
2021/07/15 00:35:06;;;;;;;10.07;2.53;;;;;;;-145.18;100.00;60484.78;5081236;28;20032;-69
2021/07/15 00:37:32;;;;;;;6.50;2.50;;;;;;;-145.18;100.00;60484.78;5080598;28;20032;-69
2021/07/15 00:39:57;;;;;;;8.73;2.43;;;;;;;-145.18;100.00;60484.78;5080696;28;20028;-69
2021/07/15 00:42:23;;;;;;;5.23;2.77;;;;;;;-145.18;100.00;60484.78;5079439;28;20016;-69
2021/07/15 00:44:49;;;;;;;6.43;2.10;;;;;;;-145.18;100.00;60484.78;5080678;28;20028;-69
2021/07/15 00:47:14;;;;;;;13.50;3.00;;;;;;;-145.18;100.00;60484.78;5079807;28;20031;-69
2021/07/15 00:49:40;;;;;;;6.20;2.40;;;;;;;-145.18;100.00;60484.78;5079668;28;20260;-69
2021/07/15 00:52:11;;;;;;;7.00;2.47;;;;;;;-145.18;100.00;60484.78;5079956;28;20354;-69
2021/07/15 00:54:41;;;;;;;6.27;2.67;;;;;;;-145.18;100.00;60484.78;5080179;28;20357;-69
2021/07/15 00:57:07;;;;;;;8.40;2.50;;;;;;;-145.18;100.00;60484.78;5079433;28;20032;-69
2021/07/15 00:59:32;;;;;;;6.80;2.80;;;;;;;-145.18;100.00;60484.78;5080212;28;20085;-69
2021/07/15 01:01:58;;;;;;;6.03;2.50;;;;;;;-145.18;100.00;60484.78;5093420;22;20035;-68
2021/07/15 01:04:24;;;;;;;8.87;2.90;;;;;;;-145.18;100.00;60484.78;5076424;28;20480;-68
2021/07/15 01:06:49;;;;;;;5.73;2.43;;;;;;;-145.18;100.00;60484.78;5078783;28;20028;-68
2021/07/15 01:09:15;;;;;;;7.00;2.60;;;;;;;-145.18;100.00;60484.78;5079414;28;20635;-68
2021/07/15 01:12:52;;;;;;;7.30;2.57;;;;;;;-145.18;100.00;60484.78;5078878;28;20035;-68
2021/07/15 01:15:22;;;;;;;6.37;2.73;;;;;;;-145.18;100.00;60484.78;4973339;28;20092;-68
2021/07/15 01:18:11;;;;;;;8.97;2.80;;;;;;;-145.18;100.00;60484.78;5016112;28;20034;-68
2021/07/15 01:21:12;;;;;;;6.27;2.57;;;;;;;-145.18;100.00;60484.78;5026300;28;20384;-68
2021/07/15 01:24:23;;;;;;;9.33;3.03;;;;;;;-145.18;100.00;60484.78;5016247;28;20549;-68
2021/07/15 01:27:10;;;;;;;10.70;2.80;;;;;;;-145.18;100.00;60484.78;5015609;28;20055;-68
2021/07/15 01:30:08;;;;;;;8.20;2.73;;;;;;;-145.18;100.00;60484.78;5016452;28;20037;-68
2021/07/15 01:32:53;;;;;;;8.10;3.10;;;;;;;-145.18;100.00;60484.78;5015064;28;20123;-68
2021/07/15 01:35:27;;;;;;;9.00;2.93;;;;;;;-145.18;100.00;60484.78;5016965;28;20368;-68
2021/07/15 01:37:55;;;;;;;16.23;3.70;;;;;;;-145.18;100.00;60484.78;5016251;28;20040;-68
2021/07/15 01:40:26;;;;;;;11.80;2.73;;;;;;;-145.18;100.00;60484.78;5016569;28;20394;-68
2021/07/15 01:42:56;;;;;;;5.90;2.30;;;;;;;-145.18;100.00;60484.78;5016186;28;20037;-68
2021/07/15 01:45:23;;;;;;;10.43;2.70;;;;;;;-145.18;100.00;60484.78;5042168;28;20696;-68
2021/07/15 01:47:48;;;;;;;7.50;3.30;;;;;;;-145.18;100.00;60484.78;5069004;28;20376;-68
2021/07/15 01:50:14;;;;;;;8.33;3.47;;;;;;;-145.18;100.00;60484.78;5078588;28;20115;-68
2021/07/15 01:52:43;;;;;;;6.83;3.23;;;;;;;-145.18;100.00;60484.78;5071939;28;20028;-68
2021/07/15 01:55:11;;;;;;;8.20;2.83;;;;;;;-145.18;100.00;60484.78;5078905;28;20388;-68
2021/07/15 01:57:38;;;;;;;10.93;2.73;;;;;;;-145.18;100.00;60484.78;5074401;28;20058;-68
2021/07/15 02:00:05;;;;;;;7.27;2.57;;;;;;;-145.18;100.00;60484.78;5078863;28;20031;-68
2021/07/15 02:02:30;;;;;;;8.67;3.03;;;;;;;-145.18;100.00;60484.78;5077020;28;20051;-68
2021/07/15 02:04:57;;;;;;;10.37;3.00;;;;;;;-145.18;100.00;60484.78;5078389;28;20044;-68
2021/07/15 02:07:25;;;;;;;5.30;2.47;;;;;;;-145.18;100.00;60484.78;5075761;28;20027;-68
2021/07/15 02:09:53;;;;;;;15.53;3.20;;;;;;;-145.18;100.00;60484.78;5078813;28;20056;-68
2021/07/15 02:12:23;;;;;;;14.37;3.10;;;;;;;-145.18;100.00;60484.78;5075928;28;20020;-68
2021/07/15 02:14:53;;;;;;;9.17;2.67;;;;;;;-145.18;100.00;60484.78;5076271;28;20032;-68
2021/07/15 02:17:21;;;;;;;12.63;3.00;;;;;;;-145.18;100.00;60484.78;5078108;28;20086;-68
2021/07/15 02:19:47;;;;;;;12.10;2.70;;;;;;;-145.18;100.00;60484.78;5078754;28;20024;-68
2021/07/15 02:22:14;;;;;;;6.33;2.83;;;;;;;-145.18;100.00;60484.78;5074838;28;20020;-68
2021/07/15 02:24:40;;;;;;;6.23;2.90;;;;;;;-145.18;100.00;60484.78;5078853;28;20028;-68
2021/07/15 02:27:07;;;;;;;10.33;2.83;;;;;;;-145.18;100.00;60484.78;5074789;28;20431;-68
2021/07/15 02:29:35;;;;;;;13.30;3.10;;;;;;;-145.18;100.00;60484.78;5079051;28;20400;-68
2021/07/15 02:32:05;;;;;;;6.73;2.60;;;;;;;-145.18;100.00;60484.78;5075468;28;20077;-68
2021/07/15 02:34:38;;;;;;;5.47;2.40;;;;;;;-145.18;100.00;60484.78;5078460;28;20039;-68
2021/07/15 02:37:05;;;;;;;5.53;2.50;;;;;;;-145.18;100.00;60484.78;5078314;28;20603;-68
2021/07/15 02:39:31;;;;;;;6.47;3.00;;;;;;;-145.18;100.00;60484.78;5078689;28;20024;-68
2021/07/15 02:41:58;;;;;;;6.43;2.60;;;;;;;-145.18;100.00;60484.78;5078512;28;20089;-68
2021/07/15 02:44:25;;;;;;;8.07;2.50;;;;;;;-145.18;100.00;60484.78;5078207;28;20427;-68
2021/07/15 02:46:51;;;;;;;5.73;2.50;;;;;;;-145.18;100.00;60484.78;5072021;28;20044;-68
2021/07/15 02:49:16;;;;;;;6.87;2.50;;;;;;;-145.18;100.00;60484.78;5073609;28;20265;-68
2021/07/15 02:51:42;;;;;;;8.93;2.40;;;;;;;-145.18;100.00;60484.78;5073571;28;20413;-68
2021/07/15 02:54:07;;;;;;;8.47;3.03;;;;;;;-145.18;100.00;60484.78;5077713;28;20402;-68
2021/07/15 02:56:47;;;;;;;8.97;2.80;;;;;;;-145.18;100.00;60484.78;5077968;28;20211;-68
2021/07/15 02:59:37;;;;;;;6.23;2.43;;;;;;;-145.18;100.00;60484.78;5079291;28;20074;-68
2021/07/15 03:02:15;;;;;;;9.90;2.73;;;;;;;-145.18;100.00;60484.78;5078875;28;20027;-68
2021/07/15 03:04:45;;;;;;;10.50;2.57;;;;;;;-145.18;100.00;60484.78;5081861;28;20043;-68
2021/07/15 03:07:14;;;;;;;8.23;2.90;;;;;;;-145.18;100.00;60484.78;5081558;28;20046;-68
2021/07/15 03:09:41;;;;;;;8.93;2.67;;;;;;;-145.18;100.00;60484.78;5082451;28;20206;-68
2021/07/15 03:12:14;;;;;;;7.17;2.43;;;;;;;-145.18;100.00;60484.78;5081680;28;20364;-68
2021/07/15 03:14:44;;;;;;;9.83;2.50;;;;;;;-145.18;100.00;60484.78;5081927;28;20387;-68
2021/07/15 03:17:13;;;;;;;10.17;2.60;;;;;;;-145.18;100.00;60484.78;5078125;28;20039;-68
2021/07/15 03:19:46;;;;;;;12.23;2.33;;;;;;;-145.18;100.00;60484.78;5082295;28;20100;-68
2021/07/15 03:22:13;;;;;;;13.10;2.67;;;;;;;-145.18;100.00;60484.78;5081533;28;20066;-68
2021/07/15 03:24:49;;;;;;;7.53;2.20;;;;;;;-145.18;100.00;60484.78;5081690;28;20623;-68
2021/07/15 03:27:18;;;;;;;9.53;2.60;;;;;;;-145.18;100.00;60484.78;5081330;28;20019;-68
2021/07/15 03:29:46;;;;;;;9.43;2.50;;;;;;;-145.18;100.00;60484.78;5082187;28;20050;-68
2021/07/15 03:32:13;;;;;;;4.97;2.30;;;;;;;-145.18;100.00;60484.78;5072863;28;20032;-68
2021/07/15 03:34:39;;;;;;;6.23;2.90;;;;;;;-145.18;100.00;60484.78;5077104;28;20496;-68
2021/07/15 03:37:06;;;;;;;6.93;2.70;;;;;;;-145.18;100.00;60484.78;5073677;28;20036;-68
2021/07/15 03:39:32;;;;;;;9.40;2.67;;;;;;;-145.18;100.00;60484.78;5078351;28;20028;-68
2021/07/15 03:41:58;;;;;;;8.17;2.87;;;;;;;-145.18;100.00;60484.78;5078356;28;20062;-68
2021/07/15 03:44:25;;;;;;;10.73;2.60;;;;;;;-145.18;100.00;60484.78;5081563;28;20107;-68
2021/07/15 03:46:52;;;;;;;10.00;3.50;;;;;;;-145.18;100.00;60484.78;5076414;28;20036;-68
2021/07/15 03:49:21;;;;;;;7.83;2.80;;;;;;;-145.18;100.00;60484.78;5077307;28;20024;-68
2021/07/15 03:51:48;;;;;;;8.30;2.90;;;;;;;-145.18;100.00;60484.78;5076170;28;20021;-68
2021/07/15 03:54:14;;;;;;;9.30;3.10;;;;;;;-145.18;100.00;60484.78;5077475;28;20067;-68
2021/07/15 03:56:43;;;;;;;8.37;3.00;;;;;;;-145.18;100.00;60484.78;5080228;28;20107;-69
2021/07/15 03:59:09;;;;;;;13.70;3.10;;;;;;;-145.18;100.00;60484.78;5080765;28;20111;-69
2021/07/15 04:01:36;;;;;;;10.80;2.97;;;;;;;-145.18;100.00;60484.78;5080145;28;20024;-69
2021/07/15 04:04:06;;;;;;;9.83;3.13;;;;;;;-145.18;100.00;60484.78;5081155;28;20191;-69
2021/07/15 04:06:34;;;;;;;10.43;3.07;;;;;;;-145.18;100.00;60484.78;5080529;28;20383;-68
2021/07/15 04:09:00;;;;;;;16.27;3.27;;;;;;;-145.18;100.00;60484.78;5081070;28;20059;-68
2021/07/15 04:11:29;;;;;;;6.83;2.77;;;;;;;-145.18;100.00;60484.78;5079858;28;20107;-66
2021/07/15 04:13:55;;;;;;;11.27;3.30;;;;;;;-145.18;100.00;60484.78;5080727;28;20096;-66
2021/07/15 04:16:45;;;;;;;6.73;2.30;;;;;;;-145.18;100.00;60484.78;5076445;28;20253;-66
2021/07/15 04:19:12;;;;;;;5.53;2.90;;;;;;;-145.18;100.00;60484.78;5077120;28;20104;-66
2021/07/15 04:21:39;;;;;;;10.97;3.00;;;;;;;-145.18;100.00;60484.78;5079141;28;20109;-67
2021/07/15 04:24:06;;;;;;;8.90;2.93;;;;;;;-145.18;100.00;60484.78;5081376;28;20028;-67
2021/07/15 04:26:32;;;;;;;9.50;3.53;;;;;;;-145.18;100.00;60484.78;5079791;28;20284;-67
2021/07/15 04:28:59;;;;;;;7.67;2.80;;;;;;;-145.18;100.00;60484.78;5080741;28;20204;-67
2021/07/15 04:32:07;;;;;;;8.53;3.33;;;;;;;-145.18;100.00;60484.78;5079864;28;20106;-67
2021/07/15 04:34:34;;;;;;;16.10;3.20;;;;;;;-145.18;100.00;60484.78;5046128;28;20051;-67
2021/07/15 04:37:01;;;;;;;8.70;3.23;;;;;;;-145.18;100.00;60484.78;5076218;28;20036;-67
2021/07/15 04:39:28;;;;;;;8.90;3.50;;;;;;;-145.18;100.00;60484.78;5080410;28;20479;-67
2021/07/15 04:42:01;;;;;;;11.03;2.70;;;;;;;-145.18;100.00;60484.78;5078178;28;20039;-67
2021/07/15 04:44:30;;;;;;;6.77;3.00;;;;;;;-145.18;100.00;60484.78;5080669;28;20169;-67
2021/07/15 04:46:57;;;;;;;7.37;2.47;;;;;;;-145.18;100.00;60484.78;5078929;28;20050;-66
2021/07/15 04:49:22;;;;;;;7.43;2.53;;;;;;;-145.18;100.00;60484.78;5080517;28;20092;-67
2021/07/15 04:51:48;;;;;;;6.00;2.37;;;;;;;-145.18;100.00;60484.78;5074742;28;20160;-67
2021/07/15 04:54:15;;;;;;;7.27;2.87;;;;;;;-145.18;100.00;60484.78;5076185;28;20039;-67
2021/07/15 04:56:41;;;;;;;7.03;2.60;;;;;;;-145.18;100.00;60484.78;5075691;28;20089;-67
2021/07/15 04:59:07;;;;;;;16.77;2.80;;;;;;;-145.18;100.00;60484.78;5075699;28;20141;-67
2021/07/15 05:01:33;;;;;;;7.60;2.73;;;;;;;-145.18;100.00;60484.78;5076905;28;20608;-67
2021/07/15 05:03:58;;;;;;;5.20;2.47;;;;;;;-145.18;100.00;60484.78;5074181;28;20105;-66
2021/07/15 05:06:24;;;;;;;12.57;3.07;;;;;;;-145.18;100.00;60484.78;5077815;28;20612;-67
2021/07/15 05:08:49;;;;;;;10.07;2.90;;;;;;;-145.18;100.00;60484.78;5075963;28;20107;-66
2021/07/15 05:11:15;;;;;;;10.48;2.65;;;;;;;-145.18;100.00;60484.78;5078791;28;20024;-67
2021/07/15 05:13:41;;;;;;;7.17;2.73;;;;;;;-145.18;100.00;60484.78;5075876;28;20063;-67
2021/07/15 05:16:07;;;;;;;8.27;2.53;;;;;;;-145.18;100.00;60484.78;5079995;28;20483;-67
2021/07/15 05:18:34;;;;;;;10.15;2.58;;;;;;;-145.18;100.00;60484.78;5075694;28;20630;-67
2021/07/15 05:21:00;;;;;;;7.22;2.65;;;;;;;-145.18;100.00;60484.78;5079753;28;20031;-67
2021/07/15 05:23:25;;;;;;;8.43;2.55;;;;;;;-145.18;100.00;60484.78;5068025;28;20208;-67
2021/07/15 05:25:52;;;;;;;8.82;3.00;;;;;;;-145.18;100.00;60484.78;5079809;28;20388;-67
2021/07/15 05:28:18;;;;;;;10.68;2.90;;;;;;;-145.18;100.00;60484.78;5070194;28;20086;-67
2021/07/15 05:30:44;;;;;;;7.80;2.45;;;;;;;-145.18;100.00;60484.78;5079870;28;20024;-67
2021/07/15 05:33:10;;;;;;;6.93;2.67;;;;;;;-145.18;100.00;60484.78;5078949;28;20036;-67
2021/07/15 05:35:35;;;;;;;7.50;2.92;;;;;;;-145.18;100.00;60484.78;5079996;28;20145;-67
2021/07/15 05:38:04;;;;;;;8.15;2.75;;;;;;;-145.18;100.00;60484.78;5066555;28;20244;-67
2021/07/15 05:40:30;;;;;;;8.88;2.67;;;;;;;-145.18;100.00;60484.78;5079600;28;20334;-67
2021/07/15 05:42:55;;;;;;;9.25;2.72;;;;;;;-145.18;100.00;60484.78;5067941;28;20028;-67
2021/07/15 05:45:21;;;;;;;8.60;2.70;;;;;;;-145.18;100.00;60484.78;5079740;28;20468;-67
2021/07/15 05:47:46;;;;;;;11.52;2.80;;;;;;;-145.18;100.00;60484.78;5068618;28;20032;-67
2021/07/15 05:50:11;;;;;;;7.07;2.80;;;;;;;-145.18;100.00;60484.78;5079000;28;20028;-66
2021/07/15 05:52:37;;;;;;;10.35;3.10;;;;;;;-145.18;100.00;60484.78;5069425;28;20031;-67
2021/07/15 05:55:06;;;;;;;9.32;3.25;;;;;;;-145.18;100.00;60484.78;5079508;28;20097;-66
2021/07/15 05:57:33;;;;;;;12.30;3.10;;;;;;;-145.18;100.00;60484.78;5070211;28;20538;-66
2021/07/15 05:59:59;;;;;;;9.07;3.10;;;;;;;-145.18;100.00;60484.78;5079458;28;20167;-67
2021/07/15 06:02:24;;;;;;;8.15;3.33;;;;;;;-145.18;100.00;60484.78;5071233;28;20032;-68
2021/07/15 06:04:50;;;;;;;7.10;3.38;;;;;;;-145.18;100.00;60484.78;5079377;28;20121;-68
2021/07/15 06:07:15;;;;;;;9.48;3.45;;;;;;;-145.18;100.00;60484.78;5070574;28;20097;-68
2021/07/15 06:09:41;;;;;;;5.60;2.92;;;;;;;-145.18;100.00;60484.78;5077600;28;20108;-69
2021/07/15 06:12:08;;;;;;;9.55;2.83;;;;;;;-145.18;100.00;60484.78;5073897;28;20036;-69
2021/07/15 06:14:37;;;;;;;9.50;2.75;;;;;;;-145.18;100.00;60484.78;5079148;28;20123;-69
2021/07/15 06:17:02;;;;;;;7.78;2.88;;;;;;;-145.18;100.00;60484.78;5074507;28;20389;-69
2021/07/15 06:19:28;;;;;;;8.63;2.85;;;;;;;-145.18;100.00;60484.78;5079356;28;20031;-69
2021/07/15 06:21:54;;;;;;;8.18;2.72;;;;;;;-145.18;100.00;60484.78;5075159;28;20031;-69
2021/07/15 06:24:19;;;;;;;6.68;2.58;;;;;;;-145.18;100.00;60484.78;5079174;28;20515;-69
2021/07/15 06:26:47;;;;;;;5.72;2.58;;;;;;;-145.18;100.00;60484.78;5076699;28;20083;-67
2021/07/15 06:29:13;;;;;;;7.47;2.88;;;;;;;-145.18;100.00;60484.78;5078930;28;20039;-67
2021/07/15 06:31:39;;;;;;;8.20;2.65;;;;;;;-145.18;100.00;60484.78;5077227;28;20023;-67
2021/07/15 06:34:05;;;;;;;7.75;2.67;;;;;;;-145.18;100.00;60484.78;5079094;28;20028;-67
2021/07/15 06:36:32;;;;;;;7.20;2.00;;;;;;;-145.18;100.00;60484.78;5084632;28;20027;-68
2021/07/15 06:38:58;;;;;;;8.57;2.53;;;;;;;-145.18;100.00;60484.78;5085849;28;20349;-68
2021/07/15 06:41:23;;;;;;;8.82;2.72;;;;;;;-145.18;100.00;60484.78;5082770;28;20062;-68
2021/07/15 06:43:49;;;;;;;7.18;2.60;;;;;;;-145.18;100.00;60484.78;5075494;28;20024;-67
2021/07/15 06:46:14;;;;;;;5.85;2.60;;;;;;;-145.18;100.00;60484.78;5084683;28;20035;-67
2021/07/15 06:48:40;;;;;;;10.77;2.80;;;;;;;-145.18;100.00;60484.78;5075246;28;20462;-67
2021/07/15 06:51:06;;;;;;;9.45;3.50;;;;;;;-145.18;100.00;60484.78;5085059;28;20287;-67
2021/07/15 06:53:32;;;;;;;10.40;3.83;;;;;;;-145.18;100.00;60484.78;5074994;28;20032;-67
2021/07/15 06:55:59;;;;;;;10.80;3.67;;;;;;;-145.18;100.00;60484.78;5085259;28;20032;-67
2021/07/15 06:58:24;;;;;;;10.65;3.72;;;;;;;-145.18;100.00;60484.78;5076333;28;20502;-67
2021/07/15 07:00:50;;;;;;;9.65;3.85;;;;;;;-145.18;100.00;60484.78;5085223;28;20024;-67
2021/07/15 07:03:15;;;;;;;9.18;3.92;;;;;;;-145.18;100.00;60484.78;5077455;28;20044;-67
2021/07/15 07:05:41;;;;;;;16.48;3.90;;;;;;;-145.18;100.00;60484.78;5083520;28;20491;-67
2021/07/15 07:08:07;;;;;;;13.60;3.92;;;;;;;-145.18;100.00;60484.78;5078823;28;20028;-67
2021/07/15 07:10:33;;;;;;;10.02;3.70;;;;;;;-145.18;100.00;60484.78;5085542;28;20030;-67
2021/07/15 07:12:58;;;;;;;7.03;2.90;;;;;;;-145.18;100.00;60484.78;5079354;28;20028;-67
2021/07/15 07:15:24;;;;;;;6.68;3.08;;;;;;;-145.18;100.00;60484.78;5085442;28;20300;-67
2021/07/15 07:17:51;;;;;;;5.60;2.30;;;;;;;-145.18;100.00;60484.78;5084832;28;20429;-69
2021/07/15 07:20:17;;;;;;;6.32;2.33;;;;;;;-145.18;100.00;60484.78;5085550;28;20107;-70
2021/07/15 07:22:43;;;;;;;7.25;1.90;;;;;;;-145.18;100.00;60484.78;5080906;28;20419;-70
2021/07/15 07:25:10;;;;;;;6.57;2.20;;;;;;;-145.18;100.00;60484.78;5085174;28;20035;-71
2021/07/15 07:27:36;;;;;;;5.80;2.30;;;;;;;-145.18;100.00;60484.78;5082208;28;20036;-71
2021/07/15 07:30:03;;;;;;;5.60;2.13;;;;;;;-145.18;100.00;60484.78;5085638;28;20372;-71
2021/07/15 07:32:28;;;;;;;5.47;2.35;;;;;;;-145.18;100.00;60484.78;5082874;28;20038;-71
2021/07/15 07:34:54;;;;;;;7.97;2.10;;;;;;;-145.18;100.00;60484.78;5085556;28;20586;-71
2021/07/15 07:37:19;;;;;;;5.80;2.20;;;;;;;-145.18;100.00;60484.78;5084623;28;20038;-71
2021/07/15 07:39:45;;;;;;;5.90;2.20;;;;;;;-145.18;100.00;60484.78;5085107;28;20030;-70
2021/07/15 07:42:11;;;;;;;7.07;2.42;;;;;;;-145.18;100.00;60484.78;5076208;28;20020;-71
2021/07/15 07:44:37;;;;;;;11.15;2.40;;;;;;;-145.18;100.00;60484.78;5082243;28;20135;-70
2021/07/15 07:47:03;;;;;;;8.50;2.45;;;;;;;-145.18;100.00;60484.78;5074595;28;20523;-70
2021/07/15 07:49:28;;;;;;;7.45;2.38;;;;;;;-145.18;100.00;60484.78;5077281;28;20123;-69
2021/07/15 07:51:54;;;;;;;6.47;2.50;;;;;;;-145.18;100.00;60484.78;5075058;28;20119;-69
2021/07/15 07:54:19;;;;;;;7.68;2.33;;;;;;;-145.18;100.00;60484.78;5076379;28;20491;-69
2021/07/15 07:56:45;;;;;;;7.80;2.08;;;;;;;-145.18;100.00;60484.78;5076508;28;20033;-70
2021/07/15 07:59:10;;;;;;;8.40;2.30;;;;;;;-145.18;100.00;60484.78;5076908;28;20104;-70
2021/07/15 08:01:36;;;;;;;4.80;1.95;;;;;;;-145.18;100.00;60484.78;5078306;28;20446;-70
2021/07/15 08:04:03;;;;;;;9.98;1.92;;;;;;;-145.18;100.00;60484.78;5076746;28;20040;-70
2021/07/15 08:06:34;;;;;;;5.22;1.75;;;;;;;-145.18;100.00;60484.78;5074925;28;20187;-70
2021/07/15 08:09:04;;;;;;;5.05;1.70;;;;;;;-145.18;100.00;60484.78;5078817;28;20111;-69
2021/07/15 08:11:30;;;;;;;4.35;1.90;;;;;;;-145.18;100.00;60484.78;5075741;28;20508;-69
2021/07/15 08:13:56;;;;;;;7.00;2.17;;;;;;;-145.18;100.00;60484.78;5076050;28;20024;-69
2021/07/15 08:16:21;;;;;;;5.50;2.40;;;;;;;-145.18;100.00;60484.78;5076876;28;20024;-69
2021/07/15 08:18:47;;;;;;;5.50;1.88;;;;;;;-145.18;100.00;60484.78;5076035;28;20095;-68
2021/07/15 08:21:16;;;;;;;6.35;2.13;;;;;;;-145.18;100.00;60484.78;5078004;28;20032;-68
2021/07/15 08:23:41;;;;;;;5.72;2.00;;;;;;;-145.18;100.00;60484.78;5076710;28;20527;-68
2021/07/15 08:26:07;;;;;;;3.53;1.48;;;;;;;-145.18;100.00;60484.78;5078579;28;20235;-68
2021/07/15 08:28:32;;;;;;;4.60;2.08;;;;;;;-145.18;100.00;60484.78;5076352;28;20143;-68
2021/07/15 08:30:58;;;;;;;3.90;1.80;;;;;;;-145.18;100.00;60484.78;5078677;28;20036;-68
2021/07/15 08:33:23;;;;;;;6.65;1.90;;;;;;;-145.18;100.00;60484.78;5077435;28;20040;-68
2021/07/15 08:35:49;;;;;;;6.97;1.98;;;;;;;-145.18;100.00;60484.78;5078323;28;20507;-69
2021/07/15 08:38:16;;;;;;;6.28;1.88;;;;;;;-145.18;100.00;60484.78;5064959;28;20050;-69
2021/07/15 08:40:43;;;;;;;4.55;2.00;;;;;;;-145.18;100.00;60484.78;5078217;28;20037;-70
2021/07/15 08:43:10;;;;;;;4.15;1.80;;;;;;;-145.18;100.00;60484.78;5066136;28;20028;-70
2021/07/15 08:45:37;;;;;;;6.38;1.90;;;;;;;-145.18;100.00;60484.78;5078078;28;20032;-71
2021/07/15 08:48:05;;;;;;;5.13;1.70;;;;;;;-145.18;100.00;60484.78;5066870;28;20040;-70
2021/07/15 08:50:31;;;;;;;5.78;1.77;;;;;;;-145.18;100.00;60484.78;5078334;28;20031;-70
2021/07/15 08:52:58;;;;;;;4.70;2.05;;;;;;;-145.18;100.00;60484.78;5067109;28;20519;-70
2021/07/15 08:58:10;;;;;;;6.45;1.85;;;;;;;-145.18;100.00;60484.78;5072918;28;20190;-69
2021/07/15 09:00:36;;;;;;;5.80;1.88;;;;;;;-145.18;100.00;60484.78;5068913;28;20036;-68
2021/07/15 09:03:03;;;;;;;4.03;1.00;;;;;;;-145.18;100.00;60484.78;5076476;28;20044;-69
2021/07/15 09:05:29;;;;;;;2.70;0.93;;;;;;;-145.18;100.00;60484.78;5073694;28;20078;-68
2021/07/15 09:07:55;;;;;;;4.90;1.10;;;;;;;-145.18;100.00;60484.78;5078287;28;20172;-69
2021/07/15 09:10:21;;;;;;;4.57;1.20;;;;;;;-145.18;100.00;60484.78;5071826;28;20388;-70
2021/07/15 09:12:47;;;;;;;6.45;1.20;;;;;;;-145.18;100.00;60484.78;5075665;28;20015;-70
2021/07/15 09:15:14;;;;;;;2.47;1.08;;;;;;;-145.18;100.00;60484.78;5080907;28;20460;-69
2021/07/15 09:17:41;;;;;;;2.45;1.08;;;;;;;-145.18;100.00;60484.78;5072034;28;20103;-69
2021/07/15 09:20:25;;;;;;;3.05;1.00;;;;;;;-145.18;100.00;60484.78;5080918;28;20088;-70
2021/07/15 09:23:08;;;;;;;7.88;1.20;;;;;;;-145.18;100.00;60484.78;5069874;28;20029;-69
2021/07/15 09:26:00;;;;;;;4.10;1.10;;;;;;;-145.18;100.00;60484.78;5076699;28;20240;-70
2021/07/15 09:28:28;;;;;;;3.90;1.10;;;;;;;-145.18;100.00;60484.78;5064084;28;20129;-70
2021/07/15 09:30:54;;;;;;;2.63;0.90;;;;;;;-145.18;100.00;60484.78;5078094;28;20423;-69
2021/07/15 09:33:20;;;;;;;4.95;1.50;;;;;;;-145.18;100.00;60484.78;5074654;28;20027;-68
2021/07/15 09:35:47;;;;;;;3.20;1.40;;;;;;;-145.18;100.00;60484.78;5080018;28;20119;-68
2021/07/15 09:38:18;;;;;;;2.88;1.23;;;;;;;-145.18;100.00;60484.78;5076239;28;20027;-68
2021/07/15 09:41:04;;;;;;;9.55;3.00;;;;;;;-145.18;100.00;60484.78;5077767;28;20423;-68
2021/07/15 09:43:38;;;;;;;6.25;2.30;;;;;;;-145.18;100.00;60484.78;5074405;28;20064;-68
2021/07/15 09:46:34;;;;;;;7.38;2.97;;;;;;;-145.18;100.00;60484.78;5075028;28;20024;-68
2021/07/15 09:49:06;;;;;;;5.50;2.75;;;;;;;-145.18;100.00;60484.78;5070246;28;20063;-68
2021/07/15 09:51:39;;;;;;;10.77;3.40;;;;;;;-145.18;100.00;60484.78;5077207;28;20119;-69
2021/07/15 09:54:06;;;;;;;7.40;3.00;;;;;;;-145.18;100.00;60484.78;5072487;28;20032;-69
2021/07/15 09:56:41;;;;;;;6.43;3.10;;;;;;;-145.18;100.00;60484.78;5067248;28;20629;-68
2021/07/15 09:59:07;;;;;;;6.70;3.25;;;;;;;-145.18;100.00;60484.78;5062192;28;20028;-68
2021/07/15 10:01:32;;;;;;;8.35;3.13;;;;;;;-145.18;100.00;60484.78;5070476;28;20028;-67
2021/07/15 10:04:03;;;;;;;8.05;3.00;;;;;;;-145.18;100.00;60484.78;5068725;28;20101;-68
2021/07/15 10:06:46;;;;;;;7.50;3.40;;;;;;;-145.18;100.00;60484.78;5060589;28;20500;-68
2021/07/15 10:09:39;;;;;;;7.13;3.25;;;;;;;-145.18;100.00;60484.78;5071796;28;20058;-68
2021/07/15 10:12:24;;;;;;;9.27;3.40;;;;;;;-145.18;100.00;60484.78;5058673;28;20582;-68
2021/07/15 10:14:50;;;;;;;8.77;3.13;;;;;;;-145.18;100.00;60484.78;5065322;28;20033;-68
2021/07/15 10:17:15;;;;;;;9.13;3.03;;;;;;;-145.18;100.00;60484.78;5069970;28;20463;-69
2021/07/15 10:19:41;;;;;;;7.97;2.80;;;;;;;-145.18;100.00;60484.78;5073798;28;20109;-69
2021/07/15 10:22:08;;;;;;;5.75;2.60;;;;;;;-145.18;100.00;60484.78;5069454;28;20024;-68
2021/07/15 10:24:34;;;;;;;7.00;2.83;;;;;;;-145.18;100.00;60484.78;5059752;28;20569;-68
2021/07/15 10:27:05;;;;;;;6.60;3.10;;;;;;;-145.18;100.00;60484.78;5068789;28;20174;-68
2021/07/15 10:29:35;;;;;;;5.38;2.78;;;;;;;-145.18;100.00;60484.78;5068451;28;20039;-67
2021/07/15 10:32:01;;;;;;;9.30;3.30;;;;;;;-145.18;100.00;60484.78;5060085;28;20063;-67
2021/07/15 10:34:28;;;;;;;9.20;3.40;;;;;;;-145.18;100.00;60484.78;5057660;28;20024;-67
2021/07/15 10:36:55;;;;;;;7.72;3.40;;;;;;;-145.18;100.00;60484.78;5075391;28;20476;-67
2021/07/15 10:39:25;;;;;;;8.10;3.33;;;;;;;-145.18;100.00;60484.78;5066349;28;20059;-67
2021/07/15 10:41:54;;;;;;;13.82;3.90;;;;;;;-145.18;100.00;60484.78;5069263;28;20415;-68
2021/07/15 10:44:21;;;;;;;8.30;3.47;;;;;;;-145.18;100.00;60484.78;5063037;28;20039;-68
2021/07/15 10:46:47;;;;;;;7.45;4.05;;;;;;;-145.18;100.00;60484.78;5068339;28;20054;-67
2021/07/15 10:49:13;;;;;;;8.07;3.83;;;;;;;-145.18;100.00;60484.78;5061366;28;20173;-68
2021/07/15 10:51:42;;;;;;;6.80;3.70;;;;;;;-145.18;100.00;60484.78;5069729;28;20119;-68
2021/07/15 10:54:08;;;;;;;7.18;3.88;;;;;;;-145.18;100.00;60484.78;5063282;28;20024;-68
2021/07/15 10:56:34;;;;;;;8.05;3.60;;;;;;;-145.18;100.00;60484.78;5069122;28;20040;-68
2021/07/15 10:59:01;;;;;;;8.55;3.83;;;;;;;-145.18;100.00;60484.78;5072597;28;20575;-68
2021/07/15 11:01:40;;;;;;;8.48;3.90;;;;;;;-145.18;100.00;60484.78;5063285;28;20538;-68
2021/07/15 11:04:37;;;;;;;6.68;3.28;;;;;;;-145.18;100.00;60484.78;5074300;28;20129;-69
2021/07/15 11:07:17;;;;;;;6.88;3.58;;;;;;;-145.18;100.00;60484.78;5075394;28;20499;-69
2021/07/15 11:09:42;;;;;;;9.10;3.60;;;;;;;-145.18;100.00;60484.78;5073352;28;20045;-68
2021/07/15 11:12:32;;;;;;;9.07;3.75;;;;;;;-145.18;100.00;60484.78;5066922;28;20036;-68
2021/07/15 11:15:16;;;;;;;9.35;4.07;;;;;;;-145.18;100.00;60484.78;5074009;28;20040;-68
2021/07/15 11:18:00;;;;;;;7.85;3.10;;;;;;;-145.18;100.00;60484.78;5068101;28;20264;-67
2021/07/15 11:20:28;;;;;;;7.72;3.70;;;;;;;-145.18;100.00;60484.78;5074953;28;20392;-67
2021/07/15 11:22:56;;;;;;;9.43;4.03;;;;;;;-145.18;100.00;60484.78;5068666;28;20269;-67
2021/07/15 11:25:48;;;;;;;6.88;3.97;;;;;;;-145.18;100.00;60484.78;5075595;28;20363;-67
2021/07/15 11:28:17;;;;;;;;;;;;;;;-145.18;100.00;60484.78;5074848;28;20074;-67
2021/07/15 11:30:46;;;;;;;9.52;4.35;;;;;;;-145.18;100.00;60484.78;5070632;28;19923;-67
2021/07/15 11:33:37;;;;;;;10.57;4.47;;;;;;;-145.18;100.00;60484.78;5072477;28;20113;-67
2021/07/15 11:36:08;;;;;;;;;;;;;;;-145.18;100.00;60484.78;5077641;28;20040;-67
2021/07/15 11:38:38;;;;;;;9.52;4.38;;;;;;;-145.18;100.00;60484.78;5074628;28;20260;-67